sensor_id;sensor_type;location;lat;lon;timestamp;P1;durP1;ratioP1;P2;durP2;ratioP2
11197;SDS011;5655;48.744;9.162;2022-12-20T00:01:58;16.70;;;9.23;;
11197;SDS011;5655;48.744;9.162;2022-12-20T00:04:24;15.60;;;9.40;;
11197;SDS011;5655;48.744;9.162;2022-12-20T00:06:49;17.40;;;9.90;;
11197;SDS011;5655;48.744;9.162;2022-12-20T00:09:14;15.87;;;10.87;;
11197;SDS011;5655;48.744;9.162;2022-12-20T00:11:40;16.63;;;11.33;;
11197;SDS011;5655;48.744;9.162;2022-12-20T00:14:06;18.33;;;11.17;;
11197;SDS011;5655;48.744;9.162;2022-12-20T00:16:33;18.53;;;11.87;;
11197;SDS011;5655;48.744;9.162;2022-12-20T00:19:00;19.30;;;12.03;;
11197;SDS011;5655;48.744;9.162;2022-12-20T00:21:28;20.43;;;11.97;;
11197;SDS011;5655;48.744;9.162;2022-12-20T00:23:54;19.10;;;11.67;;
11197;SDS011;5655;48.744;9.162;2022-12-20T00:26:22;16.80;;;11.73;;
11197;SDS011;5655;48.744;9.162;2022-12-20T00:28:49;19.50;;;12.10;;
11197;SDS011;5655;48.744;9.162;2022-12-20T00:31:15;18.87;;;12.10;;
11197;SDS011;5655;48.744;9.162;2022-12-20T00:33:44;17.60;;;11.20;;
11197;SDS011;5655;48.744;9.162;2022-12-20T00:36:11;20.70;;;12.90;;
11197;SDS011;5655;48.744;9.162;2022-12-20T00:38:36;23.73;;;12.30;;
11197;SDS011;5655;48.744;9.162;2022-12-20T00:41:03;21.87;;;12.17;;
11197;SDS011;5655;48.744;9.162;2022-12-20T00:43:34;20.90;;;12.03;;
11197;SDS011;5655;48.744;9.162;2022-12-20T00:46:00;22.83;;;13.43;;
11197;SDS011;5655;48.744;9.162;2022-12-20T00:48:26;20.77;;;12.77;;
11197;SDS011;5655;48.744;9.162;2022-12-20T00:50:56;21.30;;;14.10;;
11197;SDS011;5655;48.744;9.162;2022-12-20T00:53:23;24.63;;;15.03;;
11197;SDS011;5655;48.744;9.162;2022-12-20T00:55:48;25.90;;;16.20;;
11197;SDS011;5655;48.744;9.162;2022-12-20T00:58:13;26.77;;;16.33;;
11197;SDS011;5655;48.744;9.162;2022-12-20T01:00:39;28.13;;;16.97;;
11197;SDS011;5655;48.744;9.162;2022-12-20T01:03:05;25.47;;;15.97;;
11197;SDS011;5655;48.744;9.162;2022-12-20T01:05:31;28.23;;;17.63;;
11197;SDS011;5655;48.744;9.162;2022-12-20T01:07:57;28.37;;;18.47;;
11197;SDS011;5655;48.744;9.162;2022-12-20T01:10:22;30.37;;;17.03;;
11197;SDS011;5655;48.744;9.162;2022-12-20T01:12:48;29.23;;;17.97;;
11197;SDS011;5655;48.744;9.162;2022-12-20T01:15:13;25.40;;;16.53;;
11197;SDS011;5655;48.744;9.162;2022-12-20T01:17:39;28.93;;;18.23;;
11197;SDS011;5655;48.744;9.162;2022-12-20T01:20:05;27.00;;;16.47;;
11197;SDS011;5655;48.744;9.162;2022-12-20T01:22:31;30.80;;;17.20;;
11197;SDS011;5655;48.744;9.162;2022-12-20T01:24:57;25.63;;;15.33;;
11197;SDS011;5655;48.744;9.162;2022-12-20T01:27:22;25.90;;;15.73;;
11197;SDS011;5655;48.744;9.162;2022-12-20T01:29:48;27.57;;;16.97;;
11197;SDS011;5655;48.744;9.162;2022-12-20T01:32:13;26.10;;;15.80;;
11197;SDS011;5655;48.744;9.162;2022-12-20T01:34:38;33.10;;;17.27;;
11197;SDS011;5655;48.744;9.162;2022-12-20T01:37:04;26.67;;;17.07;;
11197;SDS011;5655;48.744;9.162;2022-12-20T01:39:29;28.97;;;17.43;;
11197;SDS011;5655;48.744;9.162;2022-12-20T01:41:55;28.10;;;17.60;;
11197;SDS011;5655;48.744;9.162;2022-12-20T01:46:46;31.33;;;16.97;;
11197;SDS011;5655;48.744;9.162;2022-12-20T01:49:16;28.67;;;17.40;;
11197;SDS011;5655;48.744;9.162;2022-12-20T01:51:55;28.07;;;17.37;;
11197;SDS011;5655;48.744;9.162;2022-12-20T01:54:36;29.83;;;17.30;;
11197;SDS011;5655;48.744;9.162;2022-12-20T01:57:20;30.93;;;19.80;;
11197;SDS011;5655;48.744;9.162;2022-12-20T01:59:50;28.20;;;18.40;;
11197;SDS011;5655;48.744;9.162;2022-12-20T02:02:19;29.47;;;18.00;;
11197;SDS011;5655;48.744;9.162;2022-12-20T02:04:44;27.27;;;17.73;;
11197;SDS011;5655;48.744;9.162;2022-12-20T02:07:10;28.77;;;18.27;;
11197;SDS011;5655;48.744;9.162;2022-12-20T02:09:41;28.30;;;17.97;;
11197;SDS011;5655;48.744;9.162;2022-12-20T02:12:16;30.53;;;18.23;;
11197;SDS011;5655;48.744;9.162;2022-12-20T02:23:25;30.83;;;18.33;;
11197;SDS011;5655;48.744;9.162;2022-12-20T02:32:29;25.17;;;16.23;;
11197;SDS011;5655;48.744;9.162;2022-12-20T02:34:57;28.77;;;16.83;;
11197;SDS011;5655;48.744;9.162;2022-12-20T02:37:23;26.37;;;17.03;;
11197;SDS011;5655;48.744;9.162;2022-12-20T02:39:48;27.73;;;17.07;;
11197;SDS011;5655;48.744;9.162;2022-12-20T02:42:15;27.07;;;16.30;;
11197;SDS011;5655;48.744;9.162;2022-12-20T02:44:47;28.17;;;17.43;;
11197;SDS011;5655;48.744;9.162;2022-12-20T02:47:54;26.27;;;17.07;;
11197;SDS011;5655;48.744;9.162;2022-12-20T02:50:45;24.47;;;16.43;;
11197;SDS011;5655;48.744;9.162;2022-12-20T02:53:14;26.83;;;16.37;;
11197;SDS011;5655;48.744;9.162;2022-12-20T02:55:49;28.33;;;16.20;;
11197;SDS011;5655;48.744;9.162;2022-12-20T02:58:28;24.30;;;16.23;;
11197;SDS011;5655;48.744;9.162;2022-12-20T03:00:56;25.40;;;16.00;;
11197;SDS011;5655;48.744;9.162;2022-12-20T03:03:28;25.43;;;15.40;;
11197;SDS011;5655;48.744;9.162;2022-12-20T03:05:56;21.80;;;14.93;;
11197;SDS011;5655;48.744;9.162;2022-12-20T03:08:22;25.57;;;15.10;;
11197;SDS011;5655;48.744;9.162;2022-12-20T03:10:48;19.93;;;13.07;;
11197;SDS011;5655;48.744;9.162;2022-12-20T03:13:15;22.17;;;13.40;;
11197;SDS011;5655;48.744;9.162;2022-12-20T03:15:40;19.97;;;12.43;;
11197;SDS011;5655;48.744;9.162;2022-12-20T03:18:06;19.43;;;12.87;;
11197;SDS011;5655;48.744;9.162;2022-12-20T03:20:31;21.30;;;12.57;;
11197;SDS011;5655;48.744;9.162;2022-12-20T03:22:57;16.70;;;11.77;;
11197;SDS011;5655;48.744;9.162;2022-12-20T03:25:22;17.87;;;10.50;;
11197;SDS011;5655;48.744;9.162;2022-12-20T03:27:47;18.93;;;10.53;;
11197;SDS011;5655;48.744;9.162;2022-12-20T03:30:13;16.10;;;10.43;;
11197;SDS011;5655;48.744;9.162;2022-12-20T03:32:38;16.07;;;9.93;;
11197;SDS011;5655;48.744;9.162;2022-12-20T03:35:04;15.37;;;10.27;;
11197;SDS011;5655;48.744;9.162;2022-12-20T03:37:29;13.63;;;9.37;;
11197;SDS011;5655;48.744;9.162;2022-12-20T03:39:55;15.50;;;10.03;;
11197;SDS011;5655;48.744;9.162;2022-12-20T03:42:20;15.20;;;10.03;;
11197;SDS011;5655;48.744;9.162;2022-12-20T03:44:46;15.60;;;10.23;;
11197;SDS011;5655;48.744;9.162;2022-12-20T03:47:11;16.30;;;9.93;;
11197;SDS011;5655;48.744;9.162;2022-12-20T03:49:36;15.13;;;9.73;;
11197;SDS011;5655;48.744;9.162;2022-12-20T03:52:01;14.70;;;9.33;;
11197;SDS011;5655;48.744;9.162;2022-12-20T03:54:27;13.57;;;9.47;;
11197;SDS011;5655;48.744;9.162;2022-12-20T03:56:52;14.27;;;8.90;;
11197;SDS011;5655;48.744;9.162;2022-12-20T03:59:17;13.10;;;8.27;;
11197;SDS011;5655;48.744;9.162;2022-12-20T04:01:43;12.40;;;8.53;;
11197;SDS011;5655;48.744;9.162;2022-12-20T04:04:09;15.50;;;9.53;;
11197;SDS011;5655;48.744;9.162;2022-12-20T04:06:35;12.73;;;7.97;;
11197;SDS011;5655;48.744;9.162;2022-12-20T04:09:00;12.07;;;7.53;;
11197;SDS011;5655;48.744;9.162;2022-12-20T04:11:25;12.67;;;7.87;;
11197;SDS011;5655;48.744;9.162;2022-12-20T04:13:52;14.40;;;8.80;;
11197;SDS011;5655;48.744;9.162;2022-12-20T04:16:19;9.43;;;7.17;;
11197;SDS011;5655;48.744;9.162;2022-12-20T04:18:46;11.13;;;7.50;;
11197;SDS011;5655;48.744;9.162;2022-12-20T04:21:11;12.47;;;7.23;;
11197;SDS011;5655;48.744;9.162;2022-12-20T04:23:37;10.70;;;7.23;;
11197;SDS011;5655;48.744;9.162;2022-12-20T04:26:05;12.10;;;7.57;;
11197;SDS011;5655;48.744;9.162;2022-12-20T04:28:31;10.63;;;6.90;;
11197;SDS011;5655;48.744;9.162;2022-12-20T04:30:57;10.13;;;7.43;;
11197;SDS011;5655;48.744;9.162;2022-12-20T04:33:23;10.93;;;6.53;;
11197;SDS011;5655;48.744;9.162;2022-12-20T04:35:49;12.97;;;6.83;;
11197;SDS011;5655;48.744;9.162;2022-12-20T04:38:15;10.97;;;7.53;;
11197;SDS011;5655;48.744;9.162;2022-12-20T04:40:41;11.33;;;6.90;;
11197;SDS011;5655;48.744;9.162;2022-12-20T04:43:06;9.37;;;6.93;;
11197;SDS011;5655;48.744;9.162;2022-12-20T04:45:32;10.70;;;7.10;;
11197;SDS011;5655;48.744;9.162;2022-12-20T04:47:58;8.57;;;5.70;;
11197;SDS011;5655;48.744;9.162;2022-12-20T04:50:24;10.97;;;6.57;;
11197;SDS011;5655;48.744;9.162;2022-12-20T04:52:49;10.18;;;6.90;;
11197;SDS011;5655;48.744;9.162;2022-12-20T04:55:37;10.23;;;6.53;;
11197;SDS011;5655;48.744;9.162;2022-12-20T04:58:03;10.40;;;6.30;;
11197;SDS011;5655;48.744;9.162;2022-12-20T05:00:29;11.60;;;6.50;;
11197;SDS011;5655;48.744;9.162;2022-12-20T05:02:54;9.50;;;5.87;;
11197;SDS011;5655;48.744;9.162;2022-12-20T05:05:19;9.47;;;5.67;;
11197;SDS011;5655;48.744;9.162;2022-12-20T05:07:44;10.70;;;6.73;;
11197;SDS011;5655;48.744;9.162;2022-12-20T05:10:10;8.88;;;6.55;;
11197;SDS011;5655;48.744;9.162;2022-12-20T05:12:35;11.10;;;6.50;;
11197;SDS011;5655;48.744;9.162;2022-12-20T05:15:01;10.80;;;6.50;;
11197;SDS011;5655;48.744;9.162;2022-12-20T05:17:26;13.27;;;6.60;;
11197;SDS011;5655;48.744;9.162;2022-12-20T05:19:51;10.47;;;6.17;;
11197;SDS011;5655;48.744;9.162;2022-12-20T05:22:17;9.03;;;6.13;;
11197;SDS011;5655;48.744;9.162;2022-12-20T05:25:00;9.47;;;6.53;;
11197;SDS011;5655;48.744;9.162;2022-12-20T05:27:44;11.43;;;6.17;;
11197;SDS011;5655;48.744;9.162;2022-12-20T05:30:10;10.70;;;6.43;;
11197;SDS011;5655;48.744;9.162;2022-12-20T05:32:35;9.53;;;6.30;;
11197;SDS011;5655;48.744;9.162;2022-12-20T05:35:01;8.43;;;6.03;;
11197;SDS011;5655;48.744;9.162;2022-12-20T05:37:26;10.97;;;6.77;;
11197;SDS011;5655;48.744;9.162;2022-12-20T05:39:51;13.93;;;7.40;;
11197;SDS011;5655;48.744;9.162;2022-12-20T05:42:16;9.97;;;7.40;;
11197;SDS011;5655;48.744;9.162;2022-12-20T05:44:42;8.27;;;6.47;;
11197;SDS011;5655;48.744;9.162;2022-12-20T05:47:07;12.43;;;7.77;;
11197;SDS011;5655;48.744;9.162;2022-12-20T05:49:32;9.77;;;7.00;;
11197;SDS011;5655;48.744;9.162;2022-12-20T05:51:58;10.87;;;6.87;;
11197;SDS011;5655;48.744;9.162;2022-12-20T05:54:24;12.00;;;7.50;;
11197;SDS011;5655;48.744;9.162;2022-12-20T05:56:49;11.47;;;7.33;;
11197;SDS011;5655;48.744;9.162;2022-12-20T05:59:14;12.90;;;7.43;;
11197;SDS011;5655;48.744;9.162;2022-12-20T06:01:41;12.10;;;6.87;;
11197;SDS011;5655;48.744;9.162;2022-12-20T06:04:07;9.50;;;7.23;;
11197;SDS011;5655;48.744;9.162;2022-12-20T06:06:32;10.50;;;6.53;;
11197;SDS011;5655;48.744;9.162;2022-12-20T06:08:57;12.30;;;7.83;;
11197;SDS011;5655;48.744;9.162;2022-12-20T06:11:23;10.00;;;7.70;;
11197;SDS011;5655;48.744;9.162;2022-12-20T06:13:48;12.07;;;7.13;;
11197;SDS011;5655;48.744;9.162;2022-12-20T06:16:13;11.57;;;7.50;;
11197;SDS011;5655;48.744;9.162;2022-12-20T06:18:44;10.93;;;6.97;;
11197;SDS011;5655;48.744;9.162;2022-12-20T06:21:09;12.20;;;7.60;;
11197;SDS011;5655;48.744;9.162;2022-12-20T06:23:35;11.17;;;7.70;;
11197;SDS011;5655;48.744;9.162;2022-12-20T06:26:00;10.77;;;7.03;;
11197;SDS011;5655;48.744;9.162;2022-12-20T06:28:26;16.30;;;7.87;;
11197;SDS011;5655;48.744;9.162;2022-12-20T06:30:52;13.40;;;7.57;;
11197;SDS011;5655;48.744;9.162;2022-12-20T06:33:18;10.30;;;7.23;;
11197;SDS011;5655;48.744;9.162;2022-12-20T06:35:43;10.13;;;6.37;;
11197;SDS011;5655;48.744;9.162;2022-12-20T06:38:09;9.57;;;6.50;;
11197;SDS011;5655;48.744;9.162;2022-12-20T06:40:34;9.57;;;6.93;;
11197;SDS011;5655;48.744;9.162;2022-12-20T06:42:59;8.07;;;5.90;;
11197;SDS011;5655;48.744;9.162;2022-12-20T06:45:25;11.90;;;6.20;;
11197;SDS011;5655;48.744;9.162;2022-12-20T06:47:50;9.57;;;5.57;;
11197;SDS011;5655;48.744;9.162;2022-12-20T06:50:15;10.87;;;6.27;;
11197;SDS011;5655;48.744;9.162;2022-12-20T06:52:41;10.33;;;5.73;;
11197;SDS011;5655;48.744;9.162;2022-12-20T06:55:06;8.43;;;5.77;;
11197;SDS011;5655;48.744;9.162;2022-12-20T06:57:32;7.67;;;5.40;;
11197;SDS011;5655;48.744;9.162;2022-12-20T06:59:57;6.77;;;5.20;;
11197;SDS011;5655;48.744;9.162;2022-12-20T07:02:22;6.90;;;5.03;;
11197;SDS011;5655;48.744;9.162;2022-12-20T07:04:48;6.37;;;4.50;;
11197;SDS011;5655;48.744;9.162;2022-12-20T07:07:13;10.10;;;4.63;;
11197;SDS011;5655;48.744;9.162;2022-12-20T07:09:38;8.97;;;4.83;;
11197;SDS011;5655;48.744;9.162;2022-12-20T07:12:05;8.73;;;4.72;;
11197;SDS011;5655;48.744;9.162;2022-12-20T07:14:31;8.75;;;4.70;;
11197;SDS011;5655;48.744;9.162;2022-12-20T07:16:57;7.53;;;4.70;;
11197;SDS011;5655;48.744;9.162;2022-12-20T07:19:22;8.68;;;4.18;;
11197;SDS011;5655;48.744;9.162;2022-12-20T07:21:47;9.27;;;4.40;;
11197;SDS011;5655;48.744;9.162;2022-12-20T07:24:13;6.72;;;4.97;;
11197;SDS011;5655;48.744;9.162;2022-12-20T07:26:38;6.53;;;4.32;;
11197;SDS011;5655;48.744;9.162;2022-12-20T07:29:03;6.22;;;4.35;;
11197;SDS011;5655;48.744;9.162;2022-12-20T07:31:29;7.25;;;4.43;;
11197;SDS011;5655;48.744;9.162;2022-12-20T07:33:54;6.07;;;4.40;;
11197;SDS011;5655;48.744;9.162;2022-12-20T07:36:19;7.70;;;4.13;;
11197;SDS011;5655;48.744;9.162;2022-12-20T07:38:45;6.40;;;4.07;;
11197;SDS011;5655;48.744;9.162;2022-12-20T07:41:15;8.68;;;4.75;;
11197;SDS011;5655;48.744;9.162;2022-12-20T07:43:42;8.23;;;4.22;;
11197;SDS011;5655;48.744;9.162;2022-12-20T07:46:08;7.35;;;4.07;;
11197;SDS011;5655;48.744;9.162;2022-12-20T07:48:35;6.70;;;4.13;;
11197;SDS011;5655;48.744;9.162;2022-12-20T07:51:02;6.13;;;3.90;;
11197;SDS011;5655;48.744;9.162;2022-12-20T07:53:31;6.47;;;3.78;;
11197;SDS011;5655;48.744;9.162;2022-12-20T07:56:00;7.32;;;3.65;;
11197;SDS011;5655;48.744;9.162;2022-12-20T07:58:27;4.53;;;3.50;;
11197;SDS011;5655;48.744;9.162;2022-12-20T08:00:55;6.25;;;3.80;;
11197;SDS011;5655;48.744;9.162;2022-12-20T08:03:26;4.78;;;4.00;;
11197;SDS011;5655;48.744;9.162;2022-12-20T08:05:56;5.45;;;3.60;;
11197;SDS011;5655;48.744;9.162;2022-12-20T08:08:24;5.93;;;3.70;;
11197;SDS011;5655;48.744;9.162;2022-12-20T08:10:50;6.43;;;4.30;;
11197;SDS011;5655;48.744;9.162;2022-12-20T08:13:15;6.80;;;3.90;;
11197;SDS011;5655;48.744;9.162;2022-12-20T08:15:42;7.03;;;3.85;;
11197;SDS011;5655;48.744;9.162;2022-12-20T08:18:07;6.38;;;4.10;;
11197;SDS011;5655;48.744;9.162;2022-12-20T08:20:32;6.25;;;3.60;;
11197;SDS011;5655;48.744;9.162;2022-12-20T08:22:58;6.68;;;3.83;;
11197;SDS011;5655;48.744;9.162;2022-12-20T08:25:23;6.00;;;4.38;;
11197;SDS011;5655;48.744;9.162;2022-12-20T08:27:49;5.78;;;4.00;;
11197;SDS011;5655;48.744;9.162;2022-12-20T08:30:15;11.05;;;4.80;;
11197;SDS011;5655;48.744;9.162;2022-12-20T08:32:40;8.30;;;4.35;;
11197;SDS011;5655;48.744;9.162;2022-12-20T08:35:06;9.07;;;5.07;;
11197;SDS011;5655;48.744;9.162;2022-12-20T08:37:32;10.63;;;6.47;;
11197;SDS011;5655;48.744;9.162;2022-12-20T08:39:57;12.38;;;6.85;;
11197;SDS011;5655;48.744;9.162;2022-12-20T08:42:24;10.30;;;6.82;;
11197;SDS011;5655;48.744;9.162;2022-12-20T08:44:50;12.25;;;6.80;;
11197;SDS011;5655;48.744;9.162;2022-12-20T08:47:15;11.75;;;7.00;;
11197;SDS011;5655;48.744;9.162;2022-12-20T08:49:40;13.18;;;7.63;;
11197;SDS011;5655;48.744;9.162;2022-12-20T08:52:06;10.98;;;6.15;;
11197;SDS011;5655;48.744;9.162;2022-12-20T08:54:31;9.65;;;7.38;;
11197;SDS011;5655;48.744;9.162;2022-12-20T08:56:56;9.95;;;6.95;;
11197;SDS011;5655;48.744;9.162;2022-12-20T08:59:22;10.65;;;7.18;;
11197;SDS011;5655;48.744;9.162;2022-12-20T09:01:47;12.77;;;8.30;;
11197;SDS011;5655;48.744;9.162;2022-12-20T09:04:12;15.63;;;7.78;;
11197;SDS011;5655;48.744;9.162;2022-12-20T09:06:39;11.70;;;7.40;;
11197;SDS011;5655;48.744;9.162;2022-12-20T09:09:04;13.05;;;6.95;;
11197;SDS011;5655;48.744;9.162;2022-12-20T09:11:31;10.83;;;7.00;;
11197;SDS011;5655;48.744;9.162;2022-12-20T09:13:57;14.10;;;6.70;;
11197;SDS011;5655;48.744;9.162;2022-12-20T09:16:24;10.93;;;7.10;;
11197;SDS011;5655;48.744;9.162;2022-12-20T09:18:52;11.57;;;7.05;;
11197;SDS011;5655;48.744;9.162;2022-12-20T09:21:19;10.63;;;6.90;;
11197;SDS011;5655;48.744;9.162;2022-12-20T09:23:45;9.65;;;6.85;;
11197;SDS011;5655;48.744;9.162;2022-12-20T09:26:13;14.52;;;7.80;;
11197;SDS011;5655;48.744;9.162;2022-12-20T09:28:39;11.80;;;7.85;;
11197;SDS011;5655;48.744;9.162;2022-12-20T09:31:06;16.17;;;7.55;;
11197;SDS011;5655;48.744;9.162;2022-12-20T09:33:34;11.40;;;7.60;;
11197;SDS011;5655;48.744;9.162;2022-12-20T09:36:00;10.32;;;7.45;;
11197;SDS011;5655;48.744;9.162;2022-12-20T09:38:26;12.50;;;7.72;;
11197;SDS011;5655;48.744;9.162;2022-12-20T09:40:54;11.65;;;6.70;;
11197;SDS011;5655;48.744;9.162;2022-12-20T09:43:22;8.95;;;5.53;;
11197;SDS011;5655;48.744;9.162;2022-12-20T09:45:50;7.97;;;5.05;;
11197;SDS011;5655;48.744;9.162;2022-12-20T09:48:19;6.82;;;4.70;;
11197;SDS011;5655;48.744;9.162;2022-12-20T09:59:46;5.15;;;3.47;;
11197;SDS011;5655;48.744;9.162;2022-12-20T10:02:13;6.25;;;4.13;;
11197;SDS011;5655;48.744;9.162;2022-12-20T10:04:41;5.40;;;4.05;;
11197;SDS011;5655;48.744;9.162;2022-12-20T10:15:32;7.13;;;3.63;;
11197;SDS011;5655;48.744;9.162;2022-12-20T10:21:15;5.32;;;3.00;;
11197;SDS011;5655;48.744;9.162;2022-12-20T10:23:43;4.50;;;2.88;;
11197;SDS011;5655;48.744;9.162;2022-12-20T10:26:22;7.05;;;3.90;;
11197;SDS011;5655;48.744;9.162;2022-12-20T10:28:47;8.25;;;3.22;;
11197;SDS011;5655;48.744;9.162;2022-12-20T10:31:13;5.38;;;3.17;;
11197;SDS011;5655;48.744;9.162;2022-12-20T10:33:41;7.47;;;3.17;;
11197;SDS011;5655;48.744;9.162;2022-12-20T10:36:21;3.67;;;2.80;;
11197;SDS011;5655;48.744;9.162;2022-12-20T10:38:57;4.70;;;2.95;;
11197;SDS011;5655;48.744;9.162;2022-12-20T10:41:26;4.97;;;3.03;;
11197;SDS011;5655;48.744;9.162;2022-12-20T10:44:15;5.20;;;3.40;;
11197;SDS011;5655;48.744;9.162;2022-12-20T10:46:51;5.80;;;3.40;;
11197;SDS011;5655;48.744;9.162;2022-12-20T10:49:26;4.43;;;2.83;;
11197;SDS011;5655;48.744;9.162;2022-12-20T10:52:16;4.88;;;2.97;;
11197;SDS011;5655;48.744;9.162;2022-12-20T10:54:43;5.38;;;3.17;;
11197;SDS011;5655;48.744;9.162;2022-12-20T10:57:19;6.88;;;4.03;;
11197;SDS011;5655;48.744;9.162;2022-12-20T10:59:50;6.00;;;3.42;;
11197;SDS011;5655;48.744;9.162;2022-12-20T11:04:58;5.25;;;3.33;;
11197;SDS011;5655;48.744;9.162;2022-12-20T11:07:27;5.28;;;3.20;;
11197;SDS011;5655;48.744;9.162;2022-12-20T11:09:56;5.57;;;3.20;;
11197;SDS011;5655;48.744;9.162;2022-12-20T11:12:23;7.60;;;3.40;;
11197;SDS011;5655;48.744;9.162;2022-12-20T11:14:49;5.40;;;3.35;;
11197;SDS011;5655;48.744;9.162;2022-12-20T11:17:35;5.70;;;3.42;;
11197;SDS011;5655;48.744;9.162;2022-12-20T11:30:52;6.72;;;3.92;;
11197;SDS011;5655;48.744;9.162;2022-12-20T11:36:12;4.63;;;3.10;;
11197;SDS011;5655;48.744;9.162;2022-12-20T11:38:47;3.80;;;3.30;;
11197;SDS011;5655;48.744;9.162;2022-12-20T11:41:29;4.70;;;3.63;;
11197;SDS011;5655;48.744;9.162;2022-12-20T11:47:11;5.60;;;3.40;;
11197;SDS011;5655;48.744;9.162;2022-12-20T11:56:17;4.40;;;3.30;;
11197;SDS011;5655;48.744;9.162;2022-12-20T11:58:50;5.28;;;3.55;;
11197;SDS011;5655;48.744;9.162;2022-12-20T12:01:40;5.10;;;3.45;;
11197;SDS011;5655;48.744;9.162;2022-12-20T12:06:43;7.20;;;3.30;;
11197;SDS011;5655;48.744;9.162;2022-12-20T12:11:49;4.53;;;2.92;;
11197;SDS011;5655;48.744;9.162;2022-12-20T12:14:27;6.57;;;3.33;;
11197;SDS011;5655;48.744;9.162;2022-12-20T12:17:01;5.25;;;3.22;;
11197;SDS011;5655;48.744;9.162;2022-12-20T12:19:33;5.30;;;3.00;;
11197;SDS011;5655;48.744;9.162;2022-12-20T12:22:04;5.45;;;3.72;;
11197;SDS011;5655;48.744;9.162;2022-12-20T12:24:50;7.00;;;3.17;;
11197;SDS011;5655;48.744;9.162;2022-12-20T12:27:21;4.28;;;3.15;;
11197;SDS011;5655;48.744;9.162;2022-12-20T12:29:48;7.57;;;3.50;;
11197;SDS011;5655;48.744;9.162;2022-12-20T12:32:57;5.35;;;3.63;;
11197;SDS011;5655;48.744;9.162;2022-12-20T12:35:12;7.07;;;3.58;;
11197;SDS011;5655;48.744;9.162;2022-12-20T12:37:49;8.73;;;3.83;;
11197;SDS011;5655;48.744;9.162;2022-12-20T12:45:56;4.50;;;3.30;;
11197;SDS011;5655;48.744;9.162;2022-12-20T12:51:30;7.95;;;3.17;;
11197;SDS011;5655;48.744;9.162;2022-12-20T12:56:48;4.93;;;3.20;;
11197;SDS011;5655;48.744;9.162;2022-12-20T13:09:56;4.00;;;2.75;;
11197;SDS011;5655;48.744;9.162;2022-12-20T13:25:42;5.57;;;2.97;;
11197;SDS011;5655;48.744;9.162;2022-12-20T13:33:43;4.13;;;2.92;;
11197;SDS011;5655;48.744;9.162;2022-12-20T13:49:09;5.43;;;3.13;;
11197;SDS011;5655;48.744;9.162;2022-12-20T13:51:39;6.38;;;3.25;;
11197;SDS011;5655;48.744;9.162;2022-12-20T13:54:05;6.18;;;2.92;;
11197;SDS011;5655;48.744;9.162;2022-12-20T13:56:44;5.93;;;2.95;;
11197;SDS011;5655;48.744;9.162;2022-12-20T13:59:13;6.63;;;3.22;;
11197;SDS011;5655;48.744;9.162;2022-12-20T14:01:49;5.55;;;3.22;;
11197;SDS011;5655;48.744;9.162;2022-12-20T14:04:17;4.95;;;3.13;;
11197;SDS011;5655;48.744;9.162;2022-12-20T14:06:43;6.72;;;3.15;;
11197;SDS011;5655;48.744;9.162;2022-12-20T14:12:01;4.95;;;3.30;;
11197;SDS011;5655;48.744;9.162;2022-12-20T14:14:28;5.25;;;3.35;;
11197;SDS011;5655;48.744;9.162;2022-12-20T14:16:54;7.05;;;3.70;;
11197;SDS011;5655;48.744;9.162;2022-12-20T14:19:19;4.93;;;3.00;;
11197;SDS011;5655;48.744;9.162;2022-12-20T14:21:44;5.35;;;3.28;;
11197;SDS011;5655;48.744;9.162;2022-12-20T14:24:17;5.78;;;2.92;;
11197;SDS011;5655;48.744;9.162;2022-12-20T14:26:45;5.88;;;3.20;;
11197;SDS011;5655;48.744;9.162;2022-12-20T14:29:23;7.53;;;4.55;;
11197;SDS011;5655;48.744;9.162;2022-12-20T14:31:53;7.45;;;5.20;;
11197;SDS011;5655;48.744;9.162;2022-12-20T14:34:26;10.63;;;5.05;;
11197;SDS011;5655;48.744;9.162;2022-12-20T14:37:16;6.68;;;4.93;;
11197;SDS011;5655;48.744;9.162;2022-12-20T14:39:58;9.35;;;5.18;;
11197;SDS011;5655;48.744;9.162;2022-12-20T14:42:28;12.05;;;5.40;;
11197;SDS011;5655;48.744;9.162;2022-12-20T14:45:02;10.38;;;5.72;;
11197;SDS011;5655;48.744;9.162;2022-12-20T14:47:29;8.10;;;5.43;;
11197;SDS011;5655;48.744;9.162;2022-12-20T14:49:58;11.18;;;5.95;;
11197;SDS011;5655;48.744;9.162;2022-12-20T15:00:04;9.20;;;5.60;;
11197;SDS011;5655;48.744;9.162;2022-12-20T15:10:58;7.20;;;4.20;;
11197;SDS011;5655;48.744;9.162;2022-12-20T15:13:37;9.10;;;4.85;;
11197;SDS011;5655;48.744;9.162;2022-12-20T15:16:20;7.93;;;5.43;;
11197;SDS011;5655;48.744;9.162;2022-12-20T15:18:54;6.68;;;4.85;;
11197;SDS011;5655;48.744;9.162;2022-12-20T15:24:00;14.57;;;7.03;;
11197;SDS011;5655;48.744;9.162;2022-12-20T15:26:31;12.45;;;4.60;;
11197;SDS011;5655;48.744;9.162;2022-12-20T15:28:57;6.50;;;4.70;;
11197;SDS011;5655;48.744;9.162;2022-12-20T15:31:22;7.05;;;3.80;;
11197;SDS011;5655;48.744;9.162;2022-12-20T15:33:49;6.53;;;4.35;;
11197;SDS011;5655;48.744;9.162;2022-12-20T15:36:16;6.03;;;4.03;;
11197;SDS011;5655;48.744;9.162;2022-12-20T15:38:46;8.63;;;4.30;;
11197;SDS011;5655;48.744;9.162;2022-12-20T15:41:21;5.90;;;4.00;;
11197;SDS011;5655;48.744;9.162;2022-12-20T15:43:49;8.95;;;4.88;;
11197;SDS011;5655;48.744;9.162;2022-12-20T15:46:17;7.75;;;3.70;;
11197;SDS011;5655;48.744;9.162;2022-12-20T15:48:43;11.05;;;4.38;;
11197;SDS011;5655;48.744;9.162;2022-12-20T15:51:20;24.50;;;6.15;;
11197;SDS011;5655;48.744;9.162;2022-12-20T15:53:57;4.30;;;3.58;;
11197;SDS011;5655;48.744;9.162;2022-12-20T15:56:26;5.53;;;3.55;;
11197;SDS011;5655;48.744;9.162;2022-12-20T15:58:52;7.38;;;3.50;;
11197;SDS011;5655;48.744;9.162;2022-12-20T16:01:19;5.47;;;3.75;;
11197;SDS011;5655;48.744;9.162;2022-12-20T16:03:49;4.63;;;3.20;;
11197;SDS011;5655;48.744;9.162;2022-12-20T16:06:14;4.45;;;3.50;;
11197;SDS011;5655;48.744;9.162;2022-12-20T16:08:40;6.70;;;3.40;;
11197;SDS011;5655;48.744;9.162;2022-12-20T16:11:09;5.03;;;3.38;;
11197;SDS011;5655;48.744;9.162;2022-12-20T16:13:43;6.63;;;3.33;;
11197;SDS011;5655;48.744;9.162;2022-12-20T16:16:12;4.65;;;3.40;;
11197;SDS011;5655;48.744;9.162;2022-12-20T16:18:40;7.35;;;3.22;;
11197;SDS011;5655;48.744;9.162;2022-12-20T16:21:09;3.53;;;2.88;;
11197;SDS011;5655;48.744;9.162;2022-12-20T16:23:43;5.65;;;3.20;;
11197;SDS011;5655;48.744;9.162;2022-12-20T16:26:19;6.82;;;2.88;;
11197;SDS011;5655;48.744;9.162;2022-12-20T16:28:47;5.28;;;3.30;;
11197;SDS011;5655;48.744;9.162;2022-12-20T16:31:24;5.20;;;3.25;;
11197;SDS011;5655;48.744;9.162;2022-12-20T16:33:55;5.63;;;3.38;;
11197;SDS011;5655;48.744;9.162;2022-12-20T16:36:22;5.18;;;3.55;;
11197;SDS011;5655;48.744;9.162;2022-12-20T16:38:48;7.35;;;4.03;;
11197;SDS011;5655;48.744;9.162;2022-12-20T16:41:17;6.53;;;3.58;;
11197;SDS011;5655;48.744;9.162;2022-12-20T16:43:43;6.85;;;3.83;;
11197;SDS011;5655;48.744;9.162;2022-12-20T16:46:11;5.75;;;3.08;;
11197;SDS011;5655;48.744;9.162;2022-12-20T16:48:38;4.75;;;3.53;;
11197;SDS011;5655;48.744;9.162;2022-12-20T16:54:01;5.75;;;3.80;;
11197;SDS011;5655;48.744;9.162;2022-12-20T16:56:27;5.07;;;3.20;;
11197;SDS011;5655;48.744;9.162;2022-12-20T16:58:53;6.00;;;3.28;;
11197;SDS011;5655;48.744;9.162;2022-12-20T17:01:23;4.72;;;2.90;;
11197;SDS011;5655;48.744;9.162;2022-12-20T17:03:52;6.70;;;3.72;;
11197;SDS011;5655;48.744;9.162;2022-12-20T17:06:18;7.85;;;3.65;;
11197;SDS011;5655;48.744;9.162;2022-12-20T17:08:44;4.45;;;3.20;;
11197;SDS011;5655;48.744;9.162;2022-12-20T17:11:18;6.00;;;3.58;;
11197;SDS011;5655;48.744;9.162;2022-12-20T17:13:49;5.22;;;3.10;;
11197;SDS011;5655;48.744;9.162;2022-12-20T17:16:15;4.55;;;3.30;;
11197;SDS011;5655;48.744;9.162;2022-12-20T17:18:42;5.25;;;3.17;;
11197;SDS011;5655;48.744;9.162;2022-12-20T17:21:23;6.63;;;3.50;;
11197;SDS011;5655;48.744;9.162;2022-12-20T17:23:51;5.15;;;3.35;;
11197;SDS011;5655;48.744;9.162;2022-12-20T17:26:18;4.45;;;2.40;;
11197;SDS011;5655;48.744;9.162;2022-12-20T17:28:47;4.93;;;3.00;;